Time;durP1;ratioP1;P1;durP2;ratioP2;P2;SDS_P1;SDS_P2;PMS_P1;PMS_P2;Temp;Humidity;BMP_temperature;BMP_pressure;BME280_temperature;BME280_humidity;BME280_pressure;Samples;Min_cycle;Max_cycle;Signal;HPM_P1;HPM_P2
2022/09/17 00:00:34;;;;;;;0.75;0.75;;;13.40;99.90;;;;;;4993083;28;20105;-73
2022/09/17 00:03:00;;;;;;;0.67;0.67;;;13.40;99.90;;;;;;5009610;28;20412;-73
2022/09/17 00:05:26;;;;;;;1.25;1.17;;;13.40;99.90;;;;;;5009260;28;20022;-73
2022/09/17 00:07:52;;;;;;;0.70;0.70;;;13.40;99.90;;;;;;5009650;28;20044;-71
2022/09/17 00:10:20;;;;;;;0.60;0.60;;;13.40;99.90;;;;;;4995650;28;20124;-73
2022/09/17 00:12:46;;;;;;;0.55;0.55;;;13.40;99.90;;;;;;4988281;28;20438;-73
2022/09/17 00:15:12;;;;;;;0.40;0.40;;;13.30;99.90;;;;;;4987958;28;20022;-72
2022/09/17 00:17:37;;;;;;;1.17;1.08;;;13.30;99.90;;;;;;5006473;28;20057;-72
2022/09/17 00:20:06;;;;;;;0.83;0.83;;;13.30;99.90;;;;;;5007605;28;20485;-72
2022/09/17 00:22:32;;;;;;;0.80;0.70;;;13.30;99.90;;;;;;5009244;28;20111;-72
2022/09/17 00:24:57;;;;;;;0.97;0.97;;;13.30;99.90;;;;;;4999960;28;20064;-74
2022/09/17 00:27:23;;;;;;;1.07;1.03;;;13.30;99.90;;;;;;4989501;28;20046;-73
2022/09/17 00:29:48;;;;;;;0.70;0.70;;;13.30;99.90;;;;;;4988738;28;20040;-73
2022/09/17 00:32:14;;;;;;;0.67;0.67;;;12.80;99.90;;;;;;4990157;28;20047;-74
2022/09/17 00:34:41;;;;;;;0.60;0.60;;;13.40;99.90;;;;;;4987743;28;20061;-73
2022/09/17 00:37:07;;;;;;;1.02;1.00;;;13.40;99.90;;;;;;4987799;28;20095;-74
2022/09/17 00:39:33;;;;;;;1.70;0.70;;;13.40;99.90;;;;;;4988939;28;20034;-73
2022/09/17 00:41:58;;;;;;;0.50;0.50;;;13.30;99.90;;;;;;4989377;28;20096;-73
2022/09/17 00:44:50;;;;;;;0.90;0.90;;;13.40;99.90;;;;;;4987797;28;20096;-73
2022/09/17 00:47:39;;;;;;;0.52;0.52;;;13.30;99.90;;;;;;4990221;28;20034;-73
2022/09/17 00:50:07;;;;;;;1.65;0.88;;;13.30;99.90;;;;;;4989930;28;20030;-73
2022/09/17 00:52:55;;;;;;;1.08;0.85;;;13.30;99.90;;;;;;4990133;28;20517;-72
2022/09/17 00:55:33;;;;;;;1.70;0.60;;;13.20;99.90;;;;;;5005954;28;20478;-73
2022/09/17 00:58:02;;;;;;;0.30;0.30;;;13.30;99.90;;;;;;4988596;28;20125;-73
2022/09/17 01:00:29;;;;;;;0.50;0.50;;;13.30;99.90;;;;;;4989573;28;20034;-72
2022/09/17 01:02:55;;;;;;;0.43;0.43;;;13.20;99.90;;;;;;4989013;28;20034;-73
2022/09/17 01:05:36;;;;;;;0.60;0.60;;;13.20;99.90;;;;;;4988614;28;20104;-72
2022/09/17 01:08:15;;;;;;;0.77;0.77;;;13.20;99.90;;;;;;4988665;28;20034;-73
2022/09/17 01:11:01;;;;;;;0.73;0.73;;;13.20;99.90;;;;;;5002049;28;20042;-74
2022/09/17 01:13:45;;;;;;;0.88;0.88;;;13.10;99.90;;;;;;5008183;28;20593;-73
2022/09/17 01:16:37;;;;;;;0.40;0.40;;;13.10;99.90;;;;;;5006631;28;20461;-72
2022/09/17 01:19:21;;;;;;;0.52;0.50;;;13.10;99.90;;;;;;5028249;28;20504;-72
2022/09/17 01:21:53;;;;;;;0.63;0.63;;;13.10;99.90;;;;;;5008245;28;20034;-74
2022/09/17 01:24:44;;;;;;;0.60;0.57;;;13.10;99.90;;;;;;5005530;28;20058;-74
2022/09/17 01:27:38;;;;;;;0.50;0.50;;;13.10;99.90;;;;;;4989054;28;20470;-72
2022/09/17 01:30:35;;;;;;;1.00;0.90;;;13.10;99.90;;;;;;4983020;28;20390;-72
2022/09/17 01:33:46;;;;;;;0.75;0.70;;;13.10;99.90;;;;;;4980495;28;20079;-72
2022/09/17 01:36:17;;;;;;;0.73;0.73;;;13.10;99.90;;;;;;4996877;28;20035;-72
2022/09/17 01:39:06;;;;;;;0.30;0.30;;;13.10;99.90;;;;;;4988155;28;20038;-73
2022/09/17 01:41:51;;;;;;;0.50;0.50;;;13.10;99.90;;;;;;4988344;28;20030;-72
2022/09/17 01:45:14;;;;;;;0.28;0.28;;;13.10;99.90;;;;;;4988095;28;20111;-72
2022/09/17 01:47:54;;;;;;;1.30;1.20;;;13.20;99.90;;;;;;5038512;28;20056;-72
2022/09/17 01:50:44;;;;;;;0.32;0.32;;;13.20;99.90;;;;;;5007541;28;20541;-74
2022/09/17 01:53:10;;;;;;;0.60;0.60;;;13.20;99.90;;;;;;5004169;28;20069;-73
2022/09/17 01:55:39;;;;;;;1.08;1.05;;;13.20;99.90;;;;;;5004383;28;20477;-73
2022/09/17 01:58:10;;;;;;;1.63;1.52;;;13.20;99.90;;;;;;5007374;28;20382;-72
2022/09/17 02:00:41;;;;;;;0.22;0.22;;;13.20;99.90;;;;;;5001841;28;20018;-73
2022/09/17 02:03:22;;;;;;;0.50;0.50;;;13.20;99.90;;;;;;4986512;28;20121;-72
2022/09/17 02:06:08;;;;;;;0.30;0.30;;;13.30;99.90;;;;;;4987921;28;20026;-74
2022/09/17 02:08:44;;;;;;;0.40;0.40;;;13.30;99.90;;;;;;4987776;28;20138;-73
2022/09/17 02:11:14;;;;;;;0.73;0.70;;;13.40;99.90;;;;;;4988582;28;20033;-74
2022/09/17 02:13:46;;;;;;;0.50;0.50;;;13.30;99.90;;;;;;4988034;28;20113;-72
2022/09/17 02:16:23;;;;;;;0.55;0.55;;;13.30;99.90;;;;;;4993090;28;20073;-72
2022/09/17 02:18:59;;;;;;;0.60;0.60;;;13.40;99.90;;;;;;5007309;28;20045;-72
2022/09/17 02:22:01;;;;;;;0.65;0.65;;;13.40;99.90;;;;;;5005463;28;20061;-72
2022/09/17 02:25:00;;;;;;;0.60;0.60;;;13.40;99.90;;;;;;4966827;28;20031;-73
2022/09/17 02:27:33;;;;;;;0.55;0.55;;;13.40;99.90;;;;;;4980573;28;20051;-72
2022/09/17 02:29:59;;;;;;;2.05;1.42;;;13.40;99.90;;;;;;4974246;28;20032;-71
2022/09/17 02:32:25;;;;;;;0.40;0.40;;;13.40;99.90;;;;;;5007139;28;20438;-72
2022/09/17 02:34:52;;;;;;;0.57;0.57;;;13.40;99.90;;;;;;5005574;28;20029;-72
2022/09/17 02:37:17;;;;;;;0.45;0.45;;;13.40;99.90;;;;;;5006765;28;20060;-72
2022/09/17 02:39:43;;;;;;;0.60;0.60;;;13.40;99.90;;;;;;5005526;28;20030;-72
2022/09/17 02:42:21;;;;;;;0.60;0.60;;;13.40;99.90;;;;;;5004012;28;20109;-72
2022/09/17 02:45:14;;;;;;;0.63;0.63;;;13.40;99.90;;;;;;4967615;28;20054;-73
2022/09/17 02:47:52;;;;;;;1.05;0.73;;;13.40;99.90;;;;;;4968233;28;20564;-73
2022/09/17 02:50:23;;;;;;;0.43;0.43;;;13.40;99.90;;;;;;4967819;28;20536;-73
2022/09/17 02:52:59;;;;;;;4.32;1.85;;;13.40;99.90;;;;;;4966871;28;20031;-73
2022/09/17 02:55:38;;;;;;;0.70;0.70;;;13.40;99.90;;;;;;4971350;28;20053;-73
2022/09/17 02:58:26;;;;;;;1.25;0.95;;;13.40;99.90;;;;;;4971297;28;20039;-73
2022/09/17 03:00:56;;;;;;;0.63;0.63;;;13.40;99.90;;;;;;4999760;28;20018;-73
2022/09/17 03:03:42;;;;;;;0.40;0.40;;;13.50;99.90;;;;;;5010164;28;20038;-73
2022/09/17 03:06:07;;;;;;;1.33;0.90;;;13.50;99.90;;;;;;5008726;28;20555;-73
2022/09/17 03:08:39;;;;;;;0.57;0.57;;;13.50;99.90;;;;;;5008697;28;20029;-72
2022/09/17 03:11:07;;;;;;;0.25;0.25;;;13.50;99.90;;;;;;5006569;28;20904;-73
2022/09/17 03:13:35;;;;;;;0.65;0.55;;;13.50;99.90;;;;;;5009889;28;20320;-73
2022/09/17 03:16:02;;;;;;;1.05;1.05;;;13.50;99.90;;;;;;4996407;28;20088;-73
2022/09/17 03:18:27;;;;;;;2.65;1.75;;;13.50;99.90;;;;;;4989034;28;20026;-73
2022/09/17 03:20:53;;;;;;;0.53;0.53;;;13.50;99.90;;;;;;4989739;28;20079;-72
2022/09/17 03:23:18;;;;;;;0.83;0.83;;;13.60;99.90;;;;;;4991273;28;20049;-73
2022/09/17 03:25:45;;;;;;;0.63;0.63;;;13.50;99.90;;;;;;4990252;28;20026;-72
2022/09/17 03:28:10;;;;;;;0.40;0.40;;;13.40;99.90;;;;;;4990445;28;20058;-73
2022/09/17 03:30:36;;;;;;;0.37;0.37;;;13.60;99.90;;;;;;5005557;28;20065;-72
2022/09/17 03:33:02;;;;;;;1.27;1.13;;;13.60;99.90;;;;;;5009586;28;20037;-73
2022/09/17 03:35:27;;;;;;;2.00;1.50;;;13.60;99.90;;;;;;5009608;28;20101;-72
2022/09/17 03:37:53;;;;;;;0.67;0.67;;;13.60;99.90;;;;;;5009983;28;20034;-72
2022/09/17 03:40:19;;;;;;;0.50;0.50;;;13.70;99.90;;;;;;5004211;28;20022;-73
2022/09/17 03:42:44;;;;;;;0.67;0.67;;;13.70;99.90;;;;;;5003249;28;20454;-72
2022/09/17 03:45:10;;;;;;;0.97;0.97;;;13.60;99.90;;;;;;4998601;28;20167;-72
2022/09/17 03:47:36;;;;;;;0.50;0.50;;;13.60;99.90;;;;;;4988571;28;20049;-72
2022/09/17 03:50:03;;;;;;;0.98;0.90;;;13.60;99.90;;;;;;4990390;28;20488;-73
2022/09/17 03:52:29;;;;;;;0.40;0.40;;;13.60;99.90;;;;;;4990478;28;20482;-72
2022/09/17 03:54:54;;;;;;;1.97;1.80;;;13.60;99.90;;;;;;4990768;28;20356;-72
2022/09/17 03:57:21;;;;;;;0.70;0.70;;;13.70;99.90;;;;;;4989593;28;20042;-72
2022/09/17 03:59:47;;;;;;;;;;;13.70;99.90;;;;;;4994994;28;20029;-72
2022/09/17 04:02:13;;;;;;;0.40;0.40;;;13.60;99.90;;;;;;5009673;28;19913;-72
2022/09/17 04:04:38;;;;;;;0.57;0.57;;;13.60;99.90;;;;;;5008327;28;20061;-72
2022/09/17 04:07:04;;;;;;;1.10;1.07;;;13.60;99.90;;;;;;5009356;28;20075;-72
2022/09/17 04:09:30;;;;;;;0.50;0.50;;;13.60;99.90;;;;;;5008797;28;20363;-73
2022/09/17 04:11:55;;;;;;;0.37;0.37;;;13.60;99.90;;;;;;5007649;28;20044;-71
2022/09/17 04:14:21;;;;;;;0.70;0.70;;;14.80;99.90;;;;;;5008898;28;20033;-71
2022/09/17 04:16:47;;;;;;;0.70;0.50;;;13.60;99.90;;;;;;4989556;28;20064;-72
2022/09/17 04:19:12;;;;;;;0.40;0.40;;;13.60;99.90;;;;;;4989288;28;20033;-72
2022/09/17 04:21:38;;;;;;;1.23;1.10;;;13.60;99.90;;;;;;4990385;28;20034;-73
2022/09/17 04:24:03;;;;;;;0.70;0.70;;;13.60;99.90;;;;;;4988022;28;20035;-74
2022/09/17 04:26:29;;;;;;;0.87;0.87;;;13.60;99.90;;;;;;4988058;28;20088;-74
2022/09/17 04:28:55;;;;;;;0.30;0.30;;;13.60;99.90;;;;;;4989347;28;20107;-73
2022/09/17 04:31:23;;;;;;;0.50;0.50;;;13.50;99.90;;;;;;4987955;28;20034;-72
2022/09/17 04:33:49;;;;;;;0.30;0.30;;;13.50;99.90;;;;;;4989060;28;20026;-72
2022/09/17 04:36:15;;;;;;;0.55;0.55;;;13.50;99.90;;;;;;4989171;28;20041;-73
2022/09/17 04:38:40;;;;;;;0.50;0.50;;;13.40;99.90;;;;;;4988927;28;20034;-73
2022/09/17 04:41:06;;;;;;;0.47;0.47;;;13.40;99.90;;;;;;4989794;28;20054;-74
2022/09/17 04:43:32;;;;;;;1.43;1.33;;;13.40;99.90;;;;;;4989063;28;20393;-72
2022/09/17 04:45:58;;;;;;;0.40;0.40;;;13.40;99.90;;;;;;5005008;28;20287;-72
2022/09/17 04:48:23;;;;;;;1.67;1.23;;;13.50;99.90;;;;;;5008684;28;20037;-74
2022/09/17 04:50:49;;;;;;;0.77;0.77;;;13.50;99.90;;;;;;5006473;28;20024;-73
2022/09/17 04:53:15;;;;;;;0.87;0.87;;;13.50;99.90;;;;;;5008499;28;20073;-72
2022/09/17 04:55:42;;;;;;;0.70;0.70;;;13.60;99.90;;;;;;5008686;28;20026;-73
2022/09/17 04:58:09;;;;;;;0.45;0.45;;;13.60;99.90;;;;;;5006901;28;20121;-73
2022/09/17 05:00:35;;;;;;;0.47;0.47;;;13.70;99.90;;;;;;4989142;28;20539;-72
2022/09/17 05:03:00;;;;;;;1.53;0.93;;;13.70;99.90;;;;;;4988980;28;20030;-73
2022/09/17 05:05:26;;;;;;;0.30;0.30;;;13.70;99.90;;;;;;4988963;28;20524;-73
2022/09/17 05:07:51;;;;;;;0.63;0.63;;;13.70;99.90;;;;;;4988534;28;20473;-73
2022/09/17 05:10:19;;;;;;;1.30;1.20;;;13.80;99.90;;;;;;4989306;28;20048;-74
2022/09/17 05:12:49;;;;;;;0.30;0.30;;;13.80;99.90;;;;;;4987152;28;20027;-72
2022/09/17 05:15:15;;;;;;;0.40;0.40;;;13.70;99.90;;;;;;4988557;28;20447;-72
2022/09/17 05:17:40;;;;;;;0.40;0.40;;;13.80;99.90;;;;;;4988356;28;20033;-73
2022/09/17 05:20:06;;;;;;;1.67;1.60;;;13.80;99.90;;;;;;4989261;28;20049;-72
2022/09/17 05:22:32;;;;;;;0.73;0.73;;;13.90;99.90;;;;;;4999351;28;20107;-72
2022/09/17 05:24:57;;;;;;;1.97;1.43;;;13.90;99.90;;;;;;5006682;28;20057;-72
2022/09/17 05:27:23;;;;;;;1.70;0.97;;;14.00;99.90;;;;;;5007839;28;20034;-72
2022/09/17 05:29:49;;;;;;;0.63;0.63;;;14.00;99.90;;;;;;4991135;28;20351;-73
2022/09/17 05:32:14;;;;;;;4.87;2.73;;;13.90;99.90;;;;;;4986736;28;20030;-72
2022/09/17 05:34:40;;;;;;;1.00;0.97;;;14.00;99.90;;;;;;4987181;28;20034;-73
2022/09/17 05:37:08;;;;;;;0.50;0.50;;;14.10;99.90;;;;;;4988244;28;20075;-72
2022/09/17 05:39:33;;;;;;;0.50;0.50;;;14.30;99.90;;;;;;4988551;28;20042;-73
2022/09/17 05:41:59;;;;;;;1.90;1.13;;;14.10;99.90;;;;;;4988159;28;20030;-73
2022/09/17 05:44:24;;;;;;;1.10;1.10;;;14.10;99.90;;;;;;4999392;28;20038;-73
2022/09/17 05:46:52;;;;;;;0.40;0.40;;;14.20;99.90;;;;;;5007555;28;20021;-72
2022/09/17 05:49:17;;;;;;;4.30;0.95;;;14.10;99.90;;;;;;5004615;28;20401;-74
2022/09/17 05:51:43;;;;;;;0.70;0.70;;;14.10;99.90;;;;;;5006144;28;20025;-73
2022/09/17 05:54:08;;;;;;;1.37;1.27;;;14.10;99.90;;;;;;5007835;28;20034;-73
2022/09/17 05:56:34;;;;;;;0.43;0.43;;;14.20;99.90;;;;;;5007559;28;20030;-73
2022/09/17 05:59:00;;;;;;;0.73;0.73;;;14.30;99.90;;;;;;5007473;28;20038;-74
2022/09/17 06:01:26;;;;;;;0.40;0.40;;;14.30;99.90;;;;;;5006189;28;20348;-71
2022/09/17 06:03:52;;;;;;;1.02;0.55;;;14.40;99.90;;;;;;5007507;28;20036;-72
2022/09/17 06:06:18;;;;;;;0.65;0.60;;;14.30;99.90;;;;;;5007405;28;20026;-72
2022/09/17 06:08:43;;;;;;;2.67;2.17;;;14.30;99.90;;;;;;4999460;28;20048;-75
2022/09/17 06:11:09;;;;;;;0.40;0.40;;;14.30;99.90;;;;;;4998592;28;20030;-71
2022/09/17 06:13:35;;;;;;;0.63;0.63;;;14.30;99.90;;;;;;4998375;28;20034;-73
2022/09/17 06:16:02;;;;;;;0.50;0.50;;;14.30;99.90;;;;;;4986934;28;20346;-75
2022/09/17 06:18:28;;;;;;;;;;;14.30;99.90;;;;;;4989239;28;20075;-74
2022/09/17 06:21:00;;;;;;;1.88;1.38;;;14.40;99.90;;;;;;4986594;28;19920;-73
2022/09/17 06:23:27;;;;;;;0.80;0.73;;;14.40;99.90;;;;;;4987804;28;20044;-72
2022/09/17 06:25:57;;;;;;;0.85;0.77;;;14.40;99.90;;;;;;4987659;28;20429;-74
2022/09/17 06:28:27;;;;;;;0.63;0.63;;;14.40;99.90;;;;;;4998997;28;20034;-72
2022/09/17 06:30:54;;;;;;;0.73;0.73;;;14.40;99.90;;;;;;5007029;28;20103;-73
2022/09/17 06:33:21;;;;;;;0.30;0.30;;;14.50;99.90;;;;;;5007172;28;20496;-72
2022/09/17 06:35:46;;;;;;;2.08;1.85;;;14.50;99.90;;;;;;5006844;28;20113;-73
2022/09/17 06:38:12;;;;;;;1.73;1.63;;;14.50;99.90;;;;;;5003580;28;20126;-73
2022/09/17 06:40:38;;;;;;;0.63;0.63;;;14.50;99.90;;;;;;5007446;28;20434;-75
2022/09/17 06:43:03;;;;;;;1.60;1.40;;;14.60;99.90;;;;;;4998541;28;20468;-72
2022/09/17 06:45:29;;;;;;;0.60;0.60;;;14.60;99.90;;;;;;4986008;28;20463;-74
2022/09/17 06:47:55;;;;;;;0.67;0.67;;;14.60;99.90;;;;;;4988289;28;20026;-74
2022/09/17 06:50:21;;;;;;;0.40;0.40;;;14.60;99.90;;;;;;4991637;28;20067;-73
2022/09/17 06:52:51;;;;;;;0.88;0.80;;;14.70;99.90;;;;;;5006875;28;20531;-74
2022/09/17 06:55:18;;;;;;;1.50;1.23;;;14.70;99.90;;;;;;5006858;28;20037;-73
2022/09/17 06:57:43;;;;;;;1.00;0.90;;;14.70;99.90;;;;;;4994696;28;20026;-73
2022/09/17 07:00:10;;;;;;;0.80;0.80;;;14.80;99.90;;;;;;4985435;28;20030;-73
2022/09/17 07:02:36;;;;;;;1.15;1.05;;;14.80;99.90;;;;;;4986890;28;20478;-75
2022/09/17 07:05:02;;;;;;;0.73;0.73;;;14.80;99.90;;;;;;4987087;28;20034;-73
2022/09/17 07:07:27;;;;;;;1.77;1.30;;;14.90;99.90;;;;;;4986207;28;20026;-72
2022/09/17 07:09:53;;;;;;;0.37;0.37;;;14.90;99.90;;;;;;4987543;28;20375;-73
2022/09/17 07:12:20;;;;;;;0.40;0.40;;;14.90;99.90;;;;;;4993262;28;20485;-73
2022/09/17 07:14:46;;;;;;;0.38;0.38;;;14.90;99.90;;;;;;5005407;28;20038;-73
2022/09/17 07:17:15;;;;;;;1.38;1.27;;;14.90;99.90;;;;;;5005088;28;20385;-72
2022/09/17 07:19:40;;;;;;;0.47;0.47;;;14.90;99.90;;;;;;4999713;28;20022;-73
2022/09/17 07:22:07;;;;;;;1.13;1.07;;;14.90;99.90;;;;;;5005188;28;20171;-73
2022/09/17 07:24:33;;;;;;;0.50;0.50;;;15.00;99.90;;;;;;5006395;28;20080;-71
2022/09/17 07:26:58;;;;;;;1.87;1.67;;;14.90;99.90;;;;;;4996894;28;20452;-74
2022/09/17 07:29:27;;;;;;;0.60;0.60;;;15.00;99.90;;;;;;4985440;28;20045;-73
2022/09/17 07:31:53;;;;;;;0.40;0.40;;;15.00;99.90;;;;;;4985438;28;20038;-73
2022/09/17 07:34:19;;;;;;;1.08;1.02;;;15.10;99.90;;;;;;4987148;28;20038;-73
2022/09/17 07:36:45;;;;;;;1.00;1.00;;;15.10;99.90;;;;;;4986300;28;20557;-72
2022/09/17 07:39:12;;;;;;;0.77;0.77;;;15.00;99.90;;;;;;4988134;28;20103;-72
2022/09/17 07:41:38;;;;;;;;;;;15.10;99.90;;;;;;4994411;28;20106;-73
2022/09/17 07:44:03;;;;;;;1.48;1.23;;;15.20;99.90;;;;;;5009756;28;20368;-73
2022/09/17 07:46:29;;;;;;;0.70;0.70;;;15.20;99.90;;;;;;5008269;28;20053;-74
2022/09/17 07:48:54;;;;;;;0.47;0.47;;;15.30;99.90;;;;;;4992488;28;20038;-72
2022/09/17 07:51:23;;;;;;;1.90;1.17;;;15.30;99.90;;;;;;4990061;28;20105;-72
2022/09/17 07:53:53;;;;;;;0.30;0.30;;;15.30;99.90;;;;;;4988419;28;20045;-72
2022/09/17 07:56:20;;;;;;;1.52;0.82;;;15.40;99.90;;;;;;4996713;28;20040;-73
2022/09/17 07:58:45;;;;;;;0.30;0.30;;;15.30;99.90;;;;;;5007753;28;20396;-73
2022/09/17 08:01:15;;;;;;;1.10;1.00;;;15.40;99.90;;;;;;5009411;28;20030;-72
2022/09/17 08:03:42;;;;;;;0.80;0.80;;;15.40;99.90;;;;;;5007749;28;20026;-72
2022/09/17 08:06:10;;;;;;;0.70;0.70;;;15.40;99.90;;;;;;5004841;28;20030;-73
2022/09/17 08:08:38;;;;;;;0.88;0.88;;;15.40;99.90;;;;;;4989317;28;20034;-73
2022/09/17 08:11:06;;;;;;;0.85;0.85;;;15.50;99.90;;;;;;4991081;28;20026;-73
2022/09/17 08:13:32;;;;;;;0.30;0.30;;;15.50;99.90;;;;;;5007580;28;20037;-72
2022/09/17 08:16:03;;;;;;;1.00;0.97;;;15.50;99.90;;;;;;5007511;28;20110;-73
2022/09/17 08:18:29;;;;;;;0.95;0.65;;;15.50;99.90;;;;;;5007356;28;20091;-73
2022/09/17 08:20:59;;;;;;;1.63;1.53;;;15.50;99.90;;;;;;5007402;28;20478;-72
2022/09/17 08:23:26;;;;;;;2.35;1.98;;;15.50;99.90;;;;;;5008895;28;20179;-71
2022/09/17 08:25:57;;;;;;;0.57;0.57;;;15.40;99.90;;;;;;4999683;28;20026;-73
2022/09/17 08:28:24;;;;;;;2.17;1.38;;;15.40;99.90;;;;;;4989473;28;20079;-72
2022/09/17 08:30:51;;;;;;;29.92;1.70;;;15.40;99.90;;;;;;4989099;28;20023;-74
2022/09/17 08:33:17;;;;;;;;;;;15.40;99.90;;;;;;4989499;28;20125;-73
2022/09/17 08:35:52;;;;;;;1.35;0.95;;;15.40;99.90;;;;;;4991397;28;20063;-72
2022/09/17 08:38:18;;;;;;;1.60;1.25;;;15.50;99.90;;;;;;5007213;28;20026;-72
2022/09/17 08:40:55;;;;;;;1.00;0.95;;;15.40;99.90;;;;;;5003712;28;20101;-73
2022/09/17 08:43:23;;;;;;;1.45;1.17;;;15.30;99.90;;;;;;4989253;28;20038;-73
2022/09/17 08:45:57;;;;;;;0.75;0.75;;;15.30;99.90;;;;;;4988649;28;20053;-72
2022/09/17 08:48:26;;;;;;;0.30;0.30;;;15.10;99.90;;;;;;5007017;28;20042;-72
2022/09/17 08:50:52;;;;;;;1.63;1.00;;;15.10;99.90;;;;;;5007329;28;20041;-75
2022/09/17 08:53:29;;;;;;;0.40;0.40;;;15.00;99.90;;;;;;5007188;28;20030;-73
2022/09/17 08:56:10;;;;;;;0.95;0.95;;;15.00;99.90;;;;;;4997548;28;20041;-74
2022/09/17 08:58:39;;;;;;;0.70;0.70;;;15.00;99.90;;;;;;4989032;28;20034;-74
2022/09/17 09:01:19;;;;;;;2.65;0.90;;;15.00;99.90;;;;;;4988731;28;20026;-72
2022/09/17 09:04:11;;;;;;;0.38;0.38;;;15.00;99.90;;;;;;4987635;28;20038;-71
2022/09/17 09:06:47;;;;;;;0.82;0.82;;;14.90;99.90;;;;;;5000194;28;20084;-73
2022/09/17 09:09:19;;;;;;;0.73;0.73;;;14.90;99.90;;;;;;4990696;28;20046;-73
2022/09/17 09:11:47;;;;;;;1.90;1.33;;;14.90;99.90;;;;;;5004142;28;20030;-72
2022/09/17 09:14:29;;;;;;;0.40;0.40;;;14.80;99.90;;;;;;5006908;28;20045;-74
2022/09/17 09:16:55;;;;;;;0.77;0.77;;;14.70;99.90;;;;;;5006383;28;20041;-72
2022/09/17 09:19:45;;;;;;;0.68;0.68;;;14.70;99.90;;;;;;4995123;28;20026;-72
2022/09/17 09:22:24;;;;;;;0.77;0.73;;;14.70;99.90;;;;;;4995514;28;20515;-73
2022/09/17 09:25:16;;;;;;;1.13;1.05;;;14.70;99.90;;;;;;5006998;28;20091;-74
2022/09/17 09:27:59;;;;;;;3.38;0.63;;;14.80;99.90;;;;;;4967655;28;20027;-73
2022/09/17 09:30:33;;;;;;;0.30;0.30;;;14.80;99.90;;;;;;4967655;28;20177;-73
2022/09/17 09:33:10;;;;;;;0.47;0.47;;;14.90;99.90;;;;;;4968879;28;20487;-73
2022/09/17 09:35:40;;;;;;;0.30;0.30;;;14.90;99.90;;;;;;4997932;28;20117;-73
2022/09/17 09:38:32;;;;;;;0.32;0.32;;;15.00;99.90;;;;;;5006389;28;20156;-73
2022/09/17 09:41:26;;;;;;;0.50;0.50;;;14.90;99.90;;;;;;5006193;28;20067;-73
2022/09/17 09:44:04;;;;;;;0.65;0.65;;;15.00;99.90;;;;;;5006450;28;20109;-73
2022/09/17 09:46:48;;;;;;;1.17;1.10;;;15.00;99.90;;;;;;5007991;28;20343;-73
2022/09/17 09:49:29;;;;;;;0.73;0.73;;;15.00;99.90;;;;;;5004785;28;20560;-73
2022/09/17 09:51:57;;;;;;;0.80;0.80;;;15.00;99.90;;;;;;4987099;28;20562;-73
2022/09/17 09:54:32;;;;;;;0.70;0.70;;;15.10;99.90;;;;;;4988239;28;20045;-73
2022/09/17 09:57:06;;;;;;;0.30;0.30;;;15.00;99.90;;;;;;4988921;28;20091;-72
2022/09/17 09:59:34;;;;;;;0.28;0.28;;;14.90;99.90;;;;;;4987018;28;20068;-72
2022/09/17 10:02:01;;;;;;;2.10;0.93;;;15.00;99.90;;;;;;4988127;28;20010;-73
2022/09/17 10:04:28;;;;;;;0.50;0.50;;;15.00;99.90;;;;;;4987072;28;20038;-74
2022/09/17 10:07:04;;;;;;;0.25;0.25;;;15.00;99.90;;;;;;5007280;28;20615;-72
2022/09/17 10:09:31;;;;;;;2.63;1.00;;;15.00;99.90;;;;;;5006046;28;20030;-73
2022/09/17 10:12:12;;;;;;;0.70;0.70;;;15.10;99.90;;;;;;5005449;28;20481;-73
2022/09/17 10:14:39;;;;;;;0.60;0.60;;;15.10;99.90;;;;;;5003905;28;20038;-73
2022/09/17 10:17:26;;;;;;;1.60;0.80;;;15.10;99.90;;;;;;4987662;28;20539;-74
2022/09/17 10:20:09;;;;;;;0.50;0.50;;;15.20;99.90;;;;;;4988989;28;20084;-73
2022/09/17 10:22:43;;;;;;;0.40;0.40;;;15.20;99.90;;;;;;5005511;28;20115;-73
2022/09/17 10:25:33;;;;;;;1.85;0.50;;;15.10;99.90;;;;;;5004206;28;20022;-73
2022/09/17 10:28:03;;;;;;;0.40;0.40;;;15.10;99.90;;;;;;5018769;28;20396;-73
2022/09/17 10:30:29;;;;;;;0.50;0.50;;;15.20;99.90;;;;;;5006899;28;20021;-72
2022/09/17 10:33:18;;;;;;;0.50;0.50;;;15.20;99.90;;;;;;5005274;28;20030;-73
2022/09/17 10:36:01;;;;;;;1.83;1.17;;;15.40;99.90;;;;;;4986194;28;20031;-73
2022/09/17 10:38:34;;;;;;;0.70;0.70;;;15.30;99.90;;;;;;4987852;28;20034;-73
2022/09/17 10:41:20;;;;;;;0.60;0.60;;;15.40;99.90;;;;;;4993148;28;20452;-74
2022/09/17 10:43:47;;;;;;;0.68;0.68;;;15.30;99.90;;;;;;5005553;28;20094;-75
2022/09/17 10:46:28;;;;;;;0.60;0.60;;;15.40;99.90;;;;;;5007108;28;20026;-73
2022/09/17 10:49:07;;;;;;;1.20;1.17;;;15.30;99.90;;;;;;5004767;28;20550;-73
2022/09/17 10:51:33;;;;;;;0.50;0.50;;;15.20;99.90;;;;;;4986148;28;20450;-73
2022/09/17 10:53:59;;;;;;;1.13;1.07;;;15.30;99.90;;;;;;4987383;28;20087;-73
2022/09/17 10:56:38;;;;;;;0.60;0.60;;;15.40;99.90;;;;;;4987330;28;20061;-73
2022/09/17 10:59:19;;;;;;;0.52;0.52;;;15.50;99.90;;;;;;4988708;28;20463;-74
2022/09/17 11:01:54;;;;;;;0.65;0.65;;;15.50;99.90;;;;;;4987297;28;20058;-72
2022/09/17 11:04:48;;;;;;;0.57;0.57;;;15.60;99.90;;;;;;4987416;28;20401;-73
2022/09/17 11:07:35;;;;;;;0.75;0.75;;;15.60;99.90;;;;;;5006618;28;20482;-72
2022/09/17 11:10:28;;;;;;;0.93;0.93;;;15.70;99.90;;;;;;5006611;28;20030;-73
2022/09/17 11:13:11;;;;;;;1.30;0.77;;;15.70;99.90;;;;;;5004874;28;20326;-73
2022/09/17 11:16:14;;;;;;;0.98;0.60;;;15.80;99.90;;;;;;4994101;28;20037;-72
2022/09/17 11:19:09;;;;;;;0.43;0.43;;;15.70;99.90;;;;;;4991637;28;20514;-73
2022/09/17 11:21:49;;;;;;;0.63;0.63;;;15.70;99.90;;;;;;4993134;28;20042;-73
2022/09/17 11:24:21;;;;;;;0.82;0.82;;;15.60;99.90;;;;;;4990846;28;20031;-73
2022/09/17 11:27:23;;;;;;;0.40;0.40;;;15.50;99.90;;;;;;4990034;28;20023;-72
2022/09/17 11:30:22;;;;;;;0.55;0.52;;;15.50;99.90;;;;;;4991991;28;20042;-73
2022/09/17 11:33:25;;;;;;;0.50;0.50;;;15.50;99.90;;;;;;4989807;28;20034;-72
2022/09/17 11:36:01;;;;;;;1.42;1.33;;;15.50;99.90;;;;;;4990013;28;20030;-73
2022/09/17 11:38:42;;;;;;;0.60;0.60;;;15.50;99.90;;;;;;4988884;28;20030;-72
2022/09/17 11:41:20;;;;;;;0.55;0.55;;;15.50;99.90;;;;;;4989033;28;20033;-72
2022/09/17 11:44:15;;;;;;;0.40;0.40;;;15.50;99.90;;;;;;4970670;28;20086;-74
2022/09/17 11:47:00;;;;;;;0.90;0.88;;;15.40;99.90;;;;;;4976634;28;20094;-73
2022/09/17 11:49:41;;;;;;;1.33;1.25;;;15.40;99.90;;;;;;5008571;28;20056;-73
2022/09/17 11:52:17;;;;;;;1.15;1.10;;;15.30;99.90;;;;;;5009592;28;20389;-75
2022/09/17 11:54:56;;;;;;;0.30;0.30;;;15.20;99.90;;;;;;5010241;28;20041;-72
2022/09/17 11:57:26;;;;;;;1.35;1.25;;;15.10;99.90;;;;;;5007960;28;20053;-73
2022/09/17 12:00:00;;;;;;;1.10;1.00;;;15.00;99.90;;;;;;5008035;28;20034;-71
2022/09/17 12:02:41;;;;;;;1.60;1.50;;;14.90;99.90;;;;;;5009359;28;20026;-74
2022/09/17 12:05:21;;;;;;;1.17;0.57;;;14.90;99.90;;;;;;5007070;28;20030;-73
2022/09/17 12:08:12;;;;;;;0.55;0.55;;;14.90;99.90;;;;;;4984694;28;20038;-72
2022/09/17 12:10:54;;;;;;;2.47;1.95;;;15.00;99.90;;;;;;4969927;28;20023;-73
2022/09/17 12:13:31;;;;;;;0.45;0.45;;;15.00;99.90;;;;;;4985620;28;20373;-73
2022/09/17 12:16:08;;;;;;;0.30;0.30;;;15.10;99.90;;;;;;4987905;28;20037;-72
2022/09/17 12:19:06;;;;;;;0.75;0.75;;;15.10;99.90;;;;;;4989476;28;20027;-73
2022/09/17 12:21:43;;;;;;;0.70;0.70;;;15.70;99.90;;;;;;5036880;28;20034;-73
2022/09/17 12:24:35;;;;;;;2.38;1.10;;;15.10;99.90;;;;;;5007663;28;20054;-72
2022/09/17 12:27:09;;;;;;;0.90;0.85;;;15.10;99.90;;;;;;5010130;28;20034;-72
2022/09/17 12:29:56;;;;;;;0.30;0.30;;;15.10;99.90;;;;;;5005912;28;20038;-72
2022/09/17 12:32:32;;;;;;;1.30;1.20;;;15.10;99.90;;;;;;5008669;28;20401;-72
2022/09/17 12:35:03;;;;;;;0.30;0.30;;;15.20;99.90;;;;;;5007616;28;20026;-72
2022/09/17 12:37:31;;;;;;;1.08;1.02;;;15.20;99.90;;;;;;4993090;28;20363;-73
2022/09/17 12:40:36;;;;;;;0.70;0.70;;;15.20;99.90;;;;;;4987629;28;20038;-73
2022/09/17 12:43:34;;;;;;;0.80;0.80;;;15.20;99.90;;;;;;4990185;28;20038;-72
2022/09/17 12:46:24;;;;;;;1.35;1.25;;;15.20;99.90;;;;;;4992787;28;20101;-73
2022/09/17 12:48:59;;;;;;;1.15;1.05;;;15.30;99.90;;;;;;4983106;28;20420;-73
2022/09/17 12:51:57;;;;;;;3.85;0.63;;;15.20;99.90;;;;;;4988954;28;20118;-71
2022/09/17 12:54:31;;;;;;;0.98;0.95;;;15.20;99.90;;;;;;4987616;28;20049;-72
2022/09/17 12:57:00;;;;;;;1.67;1.45;;;15.20;99.90;;;;;;4989479;28;20022;-72
2022/09/17 12:59:30;;;;;;;2.95;0.80;;;15.20;99.90;;;;;;5005460;28;20384;-73
2022/09/17 13:02:13;;;;;;;1.65;1.25;;;15.20;99.90;;;;;;5008345;28;20037;-72
2022/09/17 13:04:53;;;;;;;0.57;0.57;;;15.10;99.90;;;;;;5008726;28;20469;-73
2022/09/17 13:07:44;;;;;;;1.33;0.85;;;15.20;99.90;;;;;;4989285;28;20127;-73
2022/09/17 13:10:34;;;;;;;0.55;0.55;;;15.20;99.90;;;;;;4988673;28;20509;-73
2022/09/17 13:13:34;;;;;;;2.15;0.82;;;15.20;99.90;;;;;;4988111;28;20092;-72
2022/09/17 13:16:16;;;;;;;1.85;1.30;;;15.10;99.90;;;;;;4991863;28;20038;-73
2022/09/17 13:19:11;;;;;;;1.58;1.48;;;15.10;99.90;;;;;;5006534;28;20034;-73